createdAt,value
2023-05-10T00:00:51.405Z,2.20
2023-05-10T00:03:53.751Z,2.90
2023-05-10T00:06:56.314Z,3.00
2023-05-10T00:09:58.681Z,3.03
2023-05-10T00:13:00.978Z,2.50
2023-05-10T00:16:03.292Z,2.83
2023-05-10T00:19:05.549Z,2.40
2023-05-10T00:22:07.742Z,2.33
2023-05-10T00:25:11.442Z,3.00
2023-05-10T00:28:13.740Z,2.87
2023-05-10T00:31:16.302Z,2.63
2023-05-10T00:34:18.765Z,2.70
2023-05-10T00:37:21.033Z,2.67
2023-05-10T00:40:23.297Z,2.77
2023-05-10T00:43:30.242Z,3.37
2023-05-10T00:46:32.873Z,3.10
2023-05-10T00:49:36.638Z,2.77
2023-05-10T00:52:39.205Z,2.90
2023-05-10T00:55:42.039Z,2.73
2023-05-10T00:58:45.052Z,3.00
2023-05-10T01:01:47.780Z,3.30
2023-05-10T01:04:50.919Z,2.77
2023-05-10T01:07:53.105Z,3.30
2023-05-10T01:10:56.537Z,2.60
2023-05-10T01:13:59.825Z,2.87
2023-05-10T01:17:02.705Z,3.17
2023-05-10T01:20:05.623Z,3.03
2023-05-10T01:23:34.098Z,2.50
2023-05-10T01:27:07.075Z,2.90
2023-05-10T01:30:24.345Z,2.90
2023-05-10T01:33:45.559Z,2.77
2023-05-10T01:37:02.202Z,2.80
2023-05-10T01:40:11.721Z,2.60
2023-05-10T01:43:23.599Z,3.10
2023-05-10T01:46:39.036Z,2.93
2023-05-10T01:49:48.919Z,2.40
2023-05-10T01:52:58.147Z,2.57
2023-05-10T01:56:02.018Z,3.17
2023-05-10T01:59:08.340Z,2.90
2023-05-10T02:02:13.299Z,2.53
2023-05-10T02:05:17.553Z,2.63
2023-05-10T02:08:22.264Z,2.37
2023-05-10T02:11:24.883Z,2.67
2023-05-10T02:14:28.945Z,2.87
2023-05-10T02:17:33.710Z,3.00
2023-05-10T02:20:36.426Z,2.73
2023-05-10T02:23:39.493Z,2.60
2023-05-10T02:26:44.197Z,2.83
2023-05-10T02:29:47.978Z,3.27
2023-05-10T02:32:52.792Z,2.93
2023-05-10T02:35:56.191Z,3.20
2023-05-10T02:39:00.405Z,3.03
2023-05-10T02:42:03.663Z,2.80
2023-05-10T02:45:16.633Z,2.93
2023-05-10T02:48:19.275Z,2.90
2023-05-10T02:51:26.294Z,2.90
2023-05-10T02:54:34.590Z,2.50
2023-05-10T02:57:44.533Z,3.00
2023-05-10T03:00:47.980Z,3.30
2023-05-10T03:03:50.472Z,2.87
2023-05-10T03:06:53.239Z,2.90
2023-05-10T03:09:55.729Z,3.10
2023-05-10T03:13:20.437Z,3.10
2023-05-10T03:16:36.220Z,3.30
2023-05-10T03:19:45.174Z,3.00
2023-05-10T03:22:56.589Z,3.77
2023-05-10T03:26:02.346Z,2.97
2023-05-10T03:29:07.780Z,3.50
2023-05-10T03:32:10.934Z,2.50
2023-05-10T03:35:17.008Z,3.30
2023-05-10T03:38:19.965Z,2.90
2023-05-10T03:41:22.524Z,3.10
2023-05-10T03:44:25.693Z,2.73
2023-05-10T03:47:27.998Z,3.10
2023-05-10T03:50:30.775Z,3.10
2023-05-10T03:53:33.108Z,3.30
2023-05-10T03:56:35.770Z,3.00
2023-05-10T03:59:38.188Z,3.13
2023-05-10T04:02:41.538Z,2.83
2023-05-10T04:05:47.005Z,2.87
2023-05-10T04:08:49.128Z,3.13
2023-05-10T04:11:51.207Z,3.03
2023-05-10T04:14:53.351Z,2.90
2023-05-10T04:17:55.527Z,2.80
2023-05-10T04:20:57.694Z,2.70
2023-05-10T04:23:59.784Z,2.90
2023-05-10T04:27:02.519Z,2.80
2023-05-10T04:30:05.162Z,2.50
2023-05-10T04:33:07.481Z,2.93
2023-05-10T04:36:09.890Z,3.03
2023-05-10T04:39:12.452Z,3.20
2023-05-10T04:42:16.222Z,2.80
2023-05-10T04:45:18.360Z,3.03
2023-05-10T04:48:20.522Z,2.60
2023-05-10T04:51:22.727Z,2.90
2023-05-10T04:54:25.143Z,2.80
2023-05-10T04:57:27.348Z,3.20
2023-05-10T05:00:29.650Z,3.33
2023-05-10T05:03:32.093Z,2.83
2023-05-10T05:06:34.366Z,3.23
2023-05-10T05:09:36.833Z,3.13
2023-05-10T05:12:39.028Z,2.90
2023-05-10T05:15:41.133Z,3.70
2023-05-10T05:18:43.701Z,3.03
2023-05-10T05:21:46.890Z,3.30
2023-05-10T05:24:49.143Z,3.33
2023-05-10T05:27:51.398Z,3.37
2023-05-10T05:30:53.765Z,3.43
2023-05-10T05:33:56.783Z,3.37
2023-05-10T05:36:59.588Z,4.00
2023-05-10T05:40:03.010Z,3.23
2023-05-10T05:43:05.741Z,3.50
2023-05-10T05:46:07.965Z,3.20
2023-05-10T05:49:10.257Z,3.13
2023-05-10T05:52:13.065Z,3.27
2023-05-10T05:55:15.513Z,3.10
2023-05-10T05:58:17.909Z,3.70
2023-05-10T06:01:20.237Z,3.40
2023-05-10T06:04:22.468Z,3.77
2023-05-10T06:07:25.420Z,3.30
2023-05-10T06:10:27.888Z,3.83
2023-05-10T06:13:33.502Z,3.70
2023-05-10T06:16:36.592Z,3.10
2023-05-10T06:19:38.820Z,3.00
2023-05-10T06:22:41.105Z,3.13
2023-05-10T06:25:43.528Z,2.80
2023-05-10T06:28:46.150Z,2.93
2023-05-10T06:31:49.092Z,3.03
2023-05-10T06:34:52.228Z,2.93
2023-05-10T06:37:54.536Z,2.97
2023-05-10T06:40:57.173Z,2.90
2023-05-10T06:43:59.419Z,2.43
2023-05-10T06:47:01.961Z,2.53
2023-05-10T06:50:04.637Z,2.40
2023-05-10T06:53:07.184Z,2.17
2023-05-10T06:56:09.518Z,2.40
2023-05-10T06:59:11.835Z,2.33
2023-05-10T07:02:17.358Z,2.30
2023-05-10T07:05:21.419Z,2.33
2023-05-10T07:08:24.073Z,2.20
2023-05-10T07:11:26.319Z,2.43
2023-05-10T07:14:29.613Z,2.30
2023-05-10T07:17:32.214Z,2.90
2023-05-10T07:20:34.657Z,2.43
2023-05-10T07:23:37.230Z,2.70
2023-05-10T07:26:39.738Z,2.43
2023-05-10T07:29:42.357Z,2.10
2023-05-10T07:32:44.801Z,2.23
2023-05-10T07:35:46.989Z,2.00
2023-05-10T07:38:50.726Z,1.77
2023-05-10T07:41:52.983Z,1.87
2023-05-10T07:44:55.900Z,1.63
2023-05-10T07:47:58.845Z,1.57
2023-05-10T07:51:02.276Z,1.60
2023-05-10T07:54:05.189Z,1.50
2023-05-10T07:57:07.750Z,1.53
2023-05-10T08:00:10.726Z,1.60
2023-05-10T08:03:16.204Z,1.90
2023-05-10T08:06:19.620Z,1.77
2023-05-10T08:09:25.142Z,1.30
2023-05-10T08:12:27.712Z,2.30
2023-05-10T08:15:30.061Z,2.47
2023-05-10T08:18:32.411Z,2.50
2023-05-10T08:21:35.701Z,2.20
2023-05-10T08:24:39.593Z,2.40
2023-05-10T08:27:42.422Z,2.17
2023-05-10T08:30:45.481Z,2.03
2023-05-10T08:33:47.836Z,2.90
2023-05-10T08:36:50.266Z,2.30
2023-05-10T08:39:52.952Z,2.10
2023-05-10T08:43:03.964Z,2.90
2023-05-10T08:46:06.859Z,2.20
2023-05-10T08:49:10.526Z,3.13
2023-05-10T08:52:15.244Z,3.10
2023-05-10T08:55:18.439Z,2.97
2023-05-10T08:58:21.722Z,2.80
2023-05-10T09:01:25.821Z,3.00
2023-05-10T09:04:29.549Z,2.63
2023-05-10T09:07:34.234Z,2.50
2023-05-10T09:10:39.989Z,2.60
2023-05-10T09:13:43.637Z,2.53
2023-05-10T09:16:46.426Z,2.70
2023-05-10T09:19:48.963Z,2.90
2023-05-10T09:22:52.082Z,2.80
2023-05-10T09:26:07.058Z,2.83
2023-05-10T09:29:09.773Z,2.47
2023-05-10T09:32:13.861Z,2.57
2023-05-10T09:35:19.053Z,2.87
2023-05-10T09:38:21.885Z,3.03
2023-05-10T09:41:25.251Z,2.20
2023-05-10T09:44:28.666Z,2.87
2023-05-10T09:47:34.022Z,2.27
2023-05-10T09:50:36.405Z,2.77
2023-05-10T09:53:38.869Z,2.50
2023-05-10T09:56:41.803Z,2.17
2023-05-10T09:59:44.795Z,2.57
2023-05-10T10:02:56.574Z,2.33
2023-05-10T10:06:02.413Z,1.90
2023-05-10T10:09:05.458Z,1.90
2023-05-10T10:12:07.738Z,2.13
2023-05-10T10:15:13.541Z,1.60
2023-05-10T10:18:17.695Z,1.60
2023-05-10T10:21:20.564Z,1.37
2023-05-10T10:24:22.831Z,1.30
2023-05-10T10:27:43.912Z,1.57
2023-05-10T10:30:49.912Z,1.40
2023-05-10T10:34:08.662Z,1.40
2023-05-10T10:37:11.211Z,1.80
2023-05-10T10:40:32.673Z,1.20
2023-05-10T10:43:37.777Z,1.00
2023-05-10T10:47:10.918Z,1.50
2023-05-10T10:50:17.599Z,1.00
2023-05-10T10:53:20.039Z,1.33
2023-05-10T10:56:24.881Z,1.20
2023-05-10T10:59:30.477Z,1.23
2023-05-10T11:02:47.411Z,1.23
2023-05-10T11:05:51.107Z,1.40
2023-05-10T11:08:54.023Z,1.07
2023-05-10T11:11:56.919Z,1.50
2023-05-10T11:14:59.723Z,1.10
2023-05-10T11:18:19.115Z,1.30
2023-05-10T11:21:22.793Z,1.30
2023-05-10T11:24:29.254Z,1.50
2023-05-10T11:27:31.651Z,1.50
2023-05-10T11:30:34.033Z,1.27
2023-05-10T11:33:50.445Z,1.47
2023-05-10T11:36:55.101Z,1.37
2023-05-10T11:39:57.421Z,1.23
2023-05-10T11:43:00.382Z,1.40
2023-05-10T11:46:03.620Z,1.50
2023-05-10T11:49:08.884Z,1.20
2023-05-10T11:52:12.628Z,1.30
2023-05-10T11:55:15.000Z,1.53
2023-05-10T11:58:17.326Z,1.27
2023-05-10T12:01:19.676Z,1.30
2023-05-10T12:04:22.810Z,1.47
2023-05-10T12:07:25.215Z,1.30
2023-05-10T12:10:28.662Z,1.50
2023-05-10T12:13:32.025Z,1.20
2023-05-10T12:16:34.928Z,1.30
2023-05-10T12:19:40.972Z,1.27
2023-05-10T12:22:47.989Z,0.90
2023-05-10T12:25:50.293Z,1.40
2023-05-10T12:32:12.720Z,1.10
2023-05-10T12:35:15.143Z,1.33
2023-05-10T12:38:33.753Z,1.30
2023-05-10T12:41:36.359Z,1.20
2023-05-10T12:44:38.710Z,1.10
2023-05-10T12:47:43.893Z,1.10
2023-05-10T12:50:47.575Z,1.17
2023-05-10T12:53:49.932Z,1.17
2023-05-10T12:56:52.233Z,1.20
2023-05-10T12:59:55.571Z,1.10
2023-05-10T13:02:57.992Z,1.00
2023-05-10T13:06:00.228Z,1.30
2023-05-10T13:09:02.561Z,1.20
2023-05-10T13:12:06.783Z,0.90
2023-05-10T13:15:10.573Z,1.20
2023-05-10T13:18:12.832Z,1.40
2023-05-10T13:21:15.329Z,1.13
2023-05-10T13:24:18.322Z,1.13
2023-05-10T13:27:21.035Z,1.27
2023-05-10T13:30:24.206Z,1.00
2023-05-10T13:33:26.463Z,1.30
2023-05-10T13:36:28.759Z,1.07
2023-05-10T13:39:34.983Z,1.23
2023-05-10T13:42:38.751Z,0.93
2023-05-10T13:45:41.118Z,0.80
2023-05-10T13:48:43.413Z,1.00
2023-05-10T13:51:45.865Z,1.10
2023-05-10T13:54:47.980Z,1.30
2023-05-10T13:57:50.238Z,1.30
2023-05-10T14:00:52.696Z,1.00
2023-05-10T14:03:55.017Z,1.33
2023-05-10T14:06:58.395Z,1.17
2023-05-10T14:10:01.621Z,1.20
2023-05-10T14:13:04.447Z,1.40
2023-05-10T14:16:07.293Z,1.73
2023-05-10T14:19:10.625Z,1.00
2023-05-10T14:22:13.588Z,1.33
2023-05-10T14:25:16.137Z,1.30
2023-05-10T14:28:19.875Z,1.20
2023-05-10T14:31:22.322Z,1.17
2023-05-10T14:34:24.798Z,1.27
2023-05-10T14:37:27.587Z,1.10
2023-05-10T14:40:30.425Z,1.00
2023-05-10T14:43:32.761Z,1.03
2023-05-10T14:46:35.785Z,1.23
2023-05-10T14:49:40.674Z,1.20
2023-05-10T14:52:42.942Z,1.10
2023-05-10T14:55:46.222Z,1.10
2023-05-10T14:58:48.615Z,1.30
2023-05-10T15:01:52.418Z,1.37
2023-05-10T15:04:56.086Z,1.40
2023-05-10T15:07:59.739Z,1.30
2023-05-10T15:11:01.784Z,1.00
2023-05-10T15:14:04.371Z,1.20
2023-05-10T15:17:08.646Z,1.10
2023-05-10T15:20:11.148Z,1.20
2023-05-10T15:23:13.722Z,1.40
2023-05-10T15:26:15.896Z,1.30
2023-05-10T15:29:21.075Z,1.00
2023-05-10T15:32:23.403Z,1.20
2023-05-10T15:35:27.299Z,1.30
2023-05-10T15:38:30.199Z,1.33
2023-05-10T15:41:35.543Z,1.00
2023-05-10T15:44:39.558Z,1.10
2023-05-10T15:47:41.876Z,1.10
2023-05-10T15:50:44.182Z,1.40
2023-05-10T15:54:00.405Z,1.10
2023-05-10T15:57:08.468Z,1.20
2023-05-10T16:00:12.463Z,0.90
2023-05-10T16:03:14.741Z,1.20
2023-05-10T16:06:17.713Z,1.20
2023-05-10T16:09:20.059Z,1.13
2023-05-10T16:12:23.184Z,1.30
2023-05-10T16:15:25.382Z,0.90
2023-05-10T16:18:27.892Z,1.03
2023-05-10T16:21:36.395Z,1.13
2023-05-10T16:24:38.711Z,1.00
2023-05-10T16:27:41.100Z,1.10
2023-05-10T16:30:43.433Z,1.10
2023-05-10T16:33:45.599Z,1.30
2023-05-10T16:36:47.909Z,1.20
2023-05-10T16:39:50.104Z,1.20
2023-05-10T16:46:10.643Z,1.10
2023-05-10T16:49:12.850Z,1.20
2023-05-10T16:52:15.309Z,1.20
2023-05-10T16:55:17.793Z,1.30
2023-05-10T16:58:20.226Z,1.10
2023-05-10T17:01:23.256Z,1.10
2023-05-10T17:04:27.303Z,1.20
2023-05-10T17:07:29.653Z,1.00
2023-05-10T17:10:31.806Z,1.00
2023-05-10T17:13:34.078Z,1.17
2023-05-10T17:16:37.410Z,1.37
2023-05-10T17:19:39.911Z,1.30
2023-05-10T17:22:42.175Z,1.30
2023-05-10T17:25:44.250Z,1.33
2023-05-10T17:28:46.361Z,1.20
2023-05-10T17:31:48.478Z,1.20
2023-05-10T17:34:50.691Z,1.17
2023-05-10T17:37:52.825Z,1.10
2023-05-10T17:40:55.139Z,1.33
2023-05-10T17:43:57.276Z,1.00
2023-05-10T17:46:59.460Z,1.27
2023-05-10T17:50:01.688Z,1.30
2023-05-10T17:53:04.014Z,1.20
2023-05-10T17:56:07.010Z,1.23
2023-05-10T17:59:09.049Z,1.20
2023-05-10T18:02:11.198Z,1.40
2023-05-10T18:05:13.491Z,1.50
2023-05-10T18:08:22.725Z,1.43
2023-05-10T18:11:26.495Z,1.30
2023-05-10T18:14:39.876Z,1.30
2023-05-10T18:17:43.407Z,1.50
2023-05-10T18:20:46.673Z,1.30
2023-05-10T18:23:48.707Z,1.37
2023-05-10T18:26:51.310Z,1.30
2023-05-10T18:29:53.382Z,1.30
2023-05-10T18:32:55.914Z,1.10
2023-05-10T18:35:58.034Z,1.17
2023-05-10T18:39:00.253Z,1.30
2023-05-10T18:42:06.994Z,1.50
2023-05-10T18:45:09.497Z,1.03
2023-05-10T18:48:12.037Z,1.30
2023-05-10T18:51:14.805Z,1.33
2023-05-10T18:54:17.591Z,1.20
2023-05-10T18:57:21.707Z,1.37
2023-05-10T19:00:24.918Z,1.47
2023-05-10T19:03:27.687Z,1.57
2023-05-10T19:06:30.276Z,1.40
2023-05-10T19:09:34.551Z,1.50
2023-05-10T19:12:37.905Z,1.30
2023-05-10T19:15:40.591Z,1.67
2023-05-10T19:18:45.205Z,1.50
2023-05-10T19:21:48.089Z,1.50
2023-05-10T19:24:50.904Z,1.50
2023-05-10T19:27:53.249Z,1.60
2023-05-10T19:30:55.832Z,1.40
2023-05-10T19:34:00.746Z,1.60
2023-05-10T19:37:04.233Z,1.43
2023-05-10T19:40:10.807Z,1.40
2023-05-10T19:43:16.725Z,1.50
2023-05-10T19:46:20.267Z,1.60
2023-05-10T19:49:23.067Z,2.10
2023-05-10T19:52:25.476Z,1.47
2023-05-10T19:55:32.683Z,1.70
2023-05-10T19:58:34.955Z,1.33
2023-05-10T20:01:37.707Z,1.63
2023-05-10T20:04:41.496Z,1.63
2023-05-10T20:07:44.803Z,1.30
2023-05-10T20:10:47.353Z,1.80
2023-05-10T20:13:49.570Z,1.77
2023-05-10T20:16:52.302Z,1.60
2023-05-10T20:19:54.533Z,1.93
2023-05-10T20:22:56.558Z,1.93
2023-05-10T20:25:58.817Z,1.90
2023-05-10T20:29:01.547Z,1.60
2023-05-10T20:32:04.296Z,1.80
2023-05-10T20:35:07.402Z,1.67
2023-05-10T20:38:09.922Z,1.90
2023-05-10T20:41:12.243Z,1.60
2023-05-10T20:44:14.427Z,1.43
2023-05-10T20:47:17.649Z,1.60
2023-05-10T20:50:20.071Z,1.90
2023-05-10T20:53:22.343Z,1.43
2023-05-10T20:56:24.620Z,1.73
2023-05-10T20:59:26.722Z,1.60
2023-05-10T21:02:29.126Z,2.00
2023-05-10T21:05:31.410Z,1.57
2023-05-10T21:08:33.682Z,1.90
2023-05-10T21:11:36.532Z,1.50
2023-05-10T21:14:38.704Z,2.00
2023-05-10T21:17:40.958Z,1.90
2023-05-10T21:20:43.089Z,2.00
2023-05-10T21:23:48.342Z,1.97
2023-05-10T21:26:50.543Z,1.43
2023-05-10T21:29:53.332Z,1.70
2023-05-10T21:32:59.867Z,1.60
2023-05-10T21:36:02.321Z,1.87
2023-05-10T21:39:04.548Z,1.73
2023-05-10T21:42:06.827Z,1.87
2023-05-10T21:45:09.176Z,1.70
2023-05-10T21:48:11.386Z,2.07
2023-05-10T21:51:13.543Z,2.00
2023-05-10T21:54:15.846Z,1.90
2023-05-10T21:57:18.030Z,1.87
2023-05-10T22:00:20.414Z,1.80
2023-05-10T22:03:23.004Z,1.80
2023-05-10T22:06:25.110Z,1.80
2023-05-10T22:09:27.267Z,1.83
2023-05-10T22:12:29.370Z,1.80
2023-05-10T22:15:34.210Z,1.93
2023-05-10T22:18:38.442Z,1.77
2023-05-10T22:21:40.779Z,1.80
2023-05-10T22:24:42.903Z,1.97
2023-05-10T22:27:45.016Z,1.67
2023-05-10T22:30:48.676Z,1.93
2023-05-10T22:33:50.887Z,1.73
2023-05-10T22:36:53.144Z,2.10
2023-05-10T22:39:55.249Z,1.90
2023-05-10T22:42:57.355Z,1.90
2023-05-10T22:45:59.649Z,2.20
2023-05-10T22:49:02.806Z,1.80
2023-05-10T22:52:04.989Z,2.13
2023-05-10T22:55:07.680Z,2.67
2023-05-10T22:58:09.824Z,2.20
2023-05-10T23:01:12.504Z,2.33
2023-05-10T23:04:15.472Z,1.73
2023-05-10T23:07:17.949Z,1.80
2023-05-10T23:10:20.937Z,1.80
2023-05-10T23:13:23.388Z,2.07
2023-05-10T23:16:25.438Z,1.77
2023-05-10T23:19:28.196Z,2.13
2023-05-10T23:22:30.277Z,2.30
2023-05-10T23:25:32.507Z,2.10
2023-05-10T23:28:35.172Z,2.10
2023-05-10T23:31:37.389Z,2.20
2023-05-10T23:34:39.588Z,2.60
2023-05-10T23:37:42.693Z,1.97
2023-05-10T23:40:51.107Z,2.10
2023-05-10T23:43:53.194Z,2.00
2023-05-10T23:46:55.306Z,2.30
2023-05-10T23:49:57.594Z,1.93
2023-05-10T23:52:59.804Z,2.40
2023-05-10T23:56:01.997Z,2.10
2023-05-10T23:59:06.084Z,2.50
